sensor_id;sensor_type;location;lat;lon;timestamp;pressure;altitude;pressure_sealevel;temperature;humidity
56074;BME280;41950;55.840;37.442;2023-06-04T00:02:10;99821.94;;;6.27;77.10
56074;BME280;41950;55.840;37.442;2023-06-04T00:04:36;99821.06;;;6.25;77.42
56074;BME280;41950;55.840;37.442;2023-06-04T00:07:02;99847.75;;;6.39;77.96
56074;BME280;41950;55.840;37.442;2023-06-04T00:09:28;99852.06;;;6.40;78.05
56074;BME280;41950;55.840;37.442;2023-06-04T00:11:55;99845.13;;;6.27;78.44
56074;BME280;41950;55.840;37.442;2023-06-04T00:14:21;99858.94;;;6.35;78.71
56074;BME280;41950;55.840;37.442;2023-06-04T00:16:47;99857.22;;;6.37;78.46
56074;BME280;41950;55.840;37.442;2023-06-04T00:19:13;99863.22;;;6.38;77.70
56074;BME280;41950;55.840;37.442;2023-06-04T00:21:39;99853.72;;;6.29;77.77
56074;BME280;41950;55.840;37.442;2023-06-04T00:24:05;99859.78;;;6.33;77.62
56074;BME280;41950;55.840;37.442;2023-06-04T00:26:31;99863.22;;;6.30;77.83
56074;BME280;41950;55.840;37.442;2023-06-04T00:28:56;99841.69;;;6.13;78.12
56074;BME280;41950;55.840;37.442;2023-06-04T00:31:22;99860.59;;;6.21;78.69
56074;BME280;41950;55.840;37.442;2023-06-04T00:33:49;99857.13;;;6.13;78.92
56074;BME280;41950;55.840;37.442;2023-06-04T00:36:14;99841.63;;;5.99;79.40
56074;BME280;41950;55.840;37.442;2023-06-04T00:38:40;99857.13;;;6.07;79.22
56074;BME280;41950;55.840;37.442;2023-06-04T00:41:06;99852.78;;;5.98;79.11
56074;BME280;41950;55.840;37.442;2023-06-04T00:43:32;99850.19;;;5.97;79.63
56074;BME280;41950;55.840;37.442;2023-06-04T00:45:58;99844.16;;;5.90;79.78
56074;BME280;41950;55.840;37.442;2023-06-04T00:48:25;99879.44;;;6.05;80.03
56074;BME280;41950;55.840;37.442;2023-06-04T00:50:53;99878.53;;;6.00;80.33
56074;BME280;41950;55.840;37.442;2023-06-04T00:53:24;99881.97;;;5.96;80.49
56074;BME280;41950;55.840;37.442;2023-06-04T00:55:51;99886.25;;;5.94;80.69
56074;BME280;41950;55.840;37.442;2023-06-04T00:58:17;99857.81;;;5.75;80.68
56074;BME280;41950;55.840;37.442;2023-06-04T01:00:44;99877.59;;;5.84;80.83
56074;BME280;41950;55.840;37.442;2023-06-04T01:03:17;99877.59;;;5.82;80.97
56074;BME280;41950;55.840;37.442;2023-06-04T01:05:54;99893.06;;;5.88;80.69
56074;BME280;41950;55.840;37.442;2023-06-04T01:08:23;99871.56;;;5.79;80.54
56074;BME280;41950;55.840;37.442;2023-06-04T01:10:52;99898.25;;;5.92;80.58
56074;BME280;41950;55.840;37.442;2023-06-04T01:13:19;99886.16;;;5.78;81.04
56074;BME280;41950;55.840;37.442;2023-06-04T01:15:44;99901.63;;;5.86;80.77
56074;BME280;41950;55.840;37.442;2023-06-04T01:18:11;99873.22;;;5.74;80.57
56074;BME280;41950;55.840;37.442;2023-06-04T01:20:50;99887.00;;;5.76;80.81
56074;BME280;41950;55.840;37.442;2023-06-04T01:23:28;99902.47;;;5.82;80.83
56074;BME280;41950;55.840;37.442;2023-06-04T01:26:00;99907.59;;;5.76;81.13
56074;BME280;41950;55.840;37.442;2023-06-04T01:28:29;99910.13;;;5.74;81.25
56074;BME280;41950;55.840;37.442;2023-06-04T01:30:55;99906.69;;;5.72;80.77
56074;BME280;41950;55.840;37.442;2023-06-04T01:33:22;99913.56;;;5.75;80.71
56074;BME280;41950;55.840;37.442;2023-06-04T01:35:49;99917.06;;;5.78;81.06
56074;BME280;41950;55.840;37.442;2023-06-04T01:38:15;99891.19;;;5.60;80.87
56074;BME280;41950;55.840;37.442;2023-06-04T01:40:41;99914.41;;;5.71;81.37
56074;BME280;41950;55.840;37.442;2023-06-04T01:43:07;99910.13;;;5.73;81.32
56074;BME280;41950;55.840;37.442;2023-06-04T01:45:33;99917.06;;;5.78;81.04
56074;BME280;41950;55.840;37.442;2023-06-04T01:48:01;99901.50;;;5.60;81.32
56074;BME280;41950;55.840;37.442;2023-06-04T01:50:27;99929.94;;;5.80;81.32
56074;BME280;41950;55.840;37.442;2023-06-04T01:52:53;99927.38;;;5.81;81.04
56074;BME280;41950;55.840;37.442;2023-06-04T01:55:20;99922.22;;;5.81;80.79
56074;BME280;41950;55.840;37.442;2023-06-04T01:57:47;99935.09;;;5.80;80.91
56074;BME280;41950;55.840;37.442;2023-06-04T02:00:14;99934.25;;;5.82;81.31
56074;BME280;41950;55.840;37.442;2023-06-04T02:02:43;99910.13;;;5.68;81.23
56074;BME280;41950;55.840;37.442;2023-06-04T02:05:11;99922.16;;;5.74;81.00
56074;BME280;41950;55.840;37.442;2023-06-04T02:07:40;99934.16;;;5.70;80.72
56074;BME280;41950;55.840;37.442;2023-06-04T02:10:10;99936.75;;;5.73;80.62
56074;BME280;41950;55.840;37.442;2023-06-04T02:12:54;99917.81;;;5.62;80.87
56074;BME280;41950;55.840;37.442;2023-06-04T02:15:20;99925.50;;;5.57;81.07
56074;BME280;41950;55.840;37.442;2023-06-04T02:17:47;99861.72;;;5.20;80.96
56074;BME280;41950;55.840;37.442;2023-06-04T02:20:13;99949.59;;;5.70;80.98
56074;BME280;41950;55.840;37.442;2023-06-04T02:22:39;99954.84;;;5.79;81.00
56074;BME280;41950;55.840;37.442;2023-06-04T02:25:05;99943.56;;;5.64;80.87
56074;BME280;41950;55.840;37.442;2023-06-04T02:27:31;99961.66;;;5.74;81.11
56074;BME280;41950;55.840;37.442;2023-06-04T02:29:57;99971.16;;;5.78;80.83
56074;BME280;41950;55.840;37.442;2023-06-04T02:32:22;99972.88;;;5.82;80.87
56074;BME280;41950;55.840;37.442;2023-06-04T02:34:48;99952.16;;;5.66;80.78
56074;BME280;41950;55.840;37.442;2023-06-04T02:37:15;99955.59;;;5.68;80.64
56074;BME280;41950;55.840;37.442;2023-06-04T02:39:41;99981.44;;;5.78;80.89
56074;BME280;41950;55.840;37.442;2023-06-04T02:42:07;99983.19;;;5.84;81.05
56074;BME280;41950;55.840;37.442;2023-06-04T02:44:33;99965.97;;;5.75;80.85
56074;BME280;41950;55.840;37.442;2023-06-04T02:46:58;99982.41;;;5.93;80.84
56074;BME280;41950;55.840;37.442;2023-06-04T02:49:24;99991.03;;;5.96;80.48
56074;BME280;41950;55.840;37.442;2023-06-04T02:51:50;99987.59;;;6.00;80.83
56074;BME280;41950;55.840;37.442;2023-06-04T02:54:17;99984.16;;;5.97;81.01
56074;BME280;41950;55.840;37.442;2023-06-04T02:56:42;99994.56;;;6.09;80.83
56074;BME280;41950;55.840;37.442;2023-06-04T02:59:10;99965.25;;;5.98;80.42
56074;BME280;41950;55.840;37.442;2023-06-04T03:01:35;99989.41;;;6.13;80.46
56074;BME280;41950;55.840;37.442;2023-06-04T03:04:02;99998.03;;;6.23;80.14
56074;BME280;41950;55.840;37.442;2023-06-04T03:06:36;99999.72;;;6.13;80.21
56074;BME280;41950;55.840;37.442;2023-06-04T03:09:03;100009.22;;;6.25;80.34
56074;BME280;41950;55.840;37.442;2023-06-04T03:11:29;100005.81;;;6.28;80.27
56074;BME280;41950;55.840;37.442;2023-06-04T03:13:55;99999.78;;;6.27;80.26
56074;BME280;41950;55.840;37.442;2023-06-04T03:16:21;100023.94;;;6.41;80.31
56074;BME280;41950;55.840;37.442;2023-06-04T03:18:47;100028.22;;;6.42;80.09
56074;BME280;41950;55.840;37.442;2023-06-04T03:21:13;100024.81;;;6.46;80.41
56074;BME280;41950;55.840;37.442;2023-06-04T03:23:39;100013.63;;;6.44;79.90
56074;BME280;41950;55.840;37.442;2023-06-04T03:26:05;100023.09;;;6.47;79.83
56074;BME280;41950;55.840;37.442;2023-06-04T03:28:33;100039.44;;;6.50;79.79
56074;BME280;41950;55.840;37.442;2023-06-04T03:30:59;100030.84;;;6.48;80.27
56074;BME280;41950;55.840;37.442;2023-06-04T03:33:25;100021.38;;;6.46;80.02
56074;BME280;41950;55.840;37.442;2023-06-04T03:35:52;100049.84;;;6.69;80.11
56074;BME280;41950;55.840;37.442;2023-06-04T03:38:25;100048.16;;;6.75;80.15
56074;BME280;41950;55.840;37.442;2023-06-04T03:40:50;100045.56;;;6.71;79.81
56074;BME280;41950;55.840;37.442;2023-06-04T03:43:21;100063.69;;;6.88;79.89
56074;BME280;41950;55.840;37.442;2023-06-04T03:45:47;100049.06;;;6.90;79.70
56074;BME280;41950;55.840;37.442;2023-06-04T03:48:12;100047.38;;;6.92;79.60
56074;BME280;41950;55.840;37.442;2023-06-04T03:50:38;100052.53;;;6.98;79.61
56074;BME280;41950;55.840;37.442;2023-06-04T03:53:04;100070.63;;;7.05;79.61
56074;BME280;41950;55.840;37.442;2023-06-04T03:55:32;100072.34;;;7.11;79.40
56074;BME280;41950;55.840;37.442;2023-06-04T03:57:58;100053.41;;;7.07;79.33
56074;BME280;41950;55.840;37.442;2023-06-04T04:00:24;100061.19;;;7.15;79.17
56074;BME280;41950;55.840;37.442;2023-06-04T04:02:50;100041.38;;;7.06;78.87
56074;BME280;41950;55.840;37.442;2023-06-04T04:05:16;100072.41;;;7.25;79.12
56074;BME280;41950;55.840;37.442;2023-06-04T04:07:42;100077.56;;;7.28;79.03
56074;BME280;41950;55.840;37.442;2023-06-04T04:10:08;100075.00;;;7.31;79.22
56074;BME280;41950;55.840;37.442;2023-06-04T04:12:34;100053.47;;;7.27;78.96
56074;BME280;41950;55.840;37.442;2023-06-04T04:14:59;100049.16;;;7.26;79.13
56074;BME280;41950;55.840;37.442;2023-06-04T04:17:25;100075.03;;;7.46;78.60
56074;BME280;41950;55.840;37.442;2023-06-04T04:19:51;100076.75;;;7.44;78.43
56074;BME280;41950;55.840;37.442;2023-06-04T04:22:17;100069.00;;;7.41;78.73
56074;BME280;41950;55.840;37.442;2023-06-04T04:24:43;100056.91;;;7.38;78.58
56074;BME280;41950;55.840;37.442;2023-06-04T04:27:09;100087.94;;;7.52;78.76
56074;BME280;41950;55.840;37.442;2023-06-04T04:29:39;100082.78;;;7.61;78.67
56074;BME280;41950;55.840;37.442;2023-06-04T04:32:05;100073.31;;;7.63;78.75
56074;BME280;41950;55.840;37.442;2023-06-04T04:34:52;100075.91;;;7.85;78.50
56074;BME280;41950;55.840;37.442;2023-06-04T04:37:19;100068.16;;;7.79;78.07
56074;BME280;41950;55.840;37.442;2023-06-04T04:39:47;100087.13;;;7.94;77.74
56074;BME280;41950;55.840;37.442;2023-06-04T04:42:15;100053.53;;;7.84;77.92
56074;BME280;41950;55.840;37.442;2023-06-04T04:44:41;100069.03;;;7.97;77.63
56074;BME280;41950;55.840;37.442;2023-06-04T04:47:06;100082.78;;;8.16;77.67
56074;BME280;41950;55.840;37.442;2023-06-04T04:49:32;100087.94;;;8.21;77.05
56074;BME280;41950;55.840;37.442;2023-06-04T04:51:58;100089.69;;;8.23;77.14
56074;BME280;41950;55.840;37.442;2023-06-04T04:54:23;100087.09;;;8.29;76.84
56074;BME280;41950;55.840;37.442;2023-06-04T04:56:49;100080.19;;;8.30;76.43
56074;BME280;41950;55.840;37.442;2023-06-04T04:59:15;100063.84;;;8.14;76.40
56074;BME280;41950;55.840;37.442;2023-06-04T05:01:40;100085.38;;;8.34;76.31
56074;BME280;41950;55.840;37.442;2023-06-04T05:04:06;100092.25;;;8.46;76.07
56074;BME280;41950;55.840;37.442;2023-06-04T05:06:32;100076.75;;;8.49;75.89
56074;BME280;41950;55.840;37.442;2023-06-04T05:08:57;100081.88;;;8.64;75.74
56074;BME280;41950;55.840;37.442;2023-06-04T05:11:23;100100.81;;;8.80;74.86
56074;BME280;41950;55.840;37.442;2023-06-04T05:13:48;100080.94;;;8.76;74.99
56074;BME280;41950;55.840;37.442;2023-06-04T05:16:14;100104.19;;;8.94;74.39
56074;BME280;41950;55.840;37.442;2023-06-04T05:18:41;100099.00;;;8.97;74.15
56074;BME280;41950;55.840;37.442;2023-06-04T05:21:07;100067.97;;;8.88;74.00
56074;BME280;41950;55.840;37.442;2023-06-04T05:23:33;100099.78;;;9.18;73.83
56074;BME280;41950;55.840;37.442;2023-06-04T05:26:03;100043.75;;;9.00;73.22
56074;BME280;41950;55.840;37.442;2023-06-04T05:28:29;100057.53;;;9.10;72.16
56074;BME280;41950;55.840;37.442;2023-06-04T05:30:58;100065.25;;;9.16;71.91
56074;BME280;41950;55.840;37.442;2023-06-04T05:33:28;100064.31;;;9.26;72.01
56074;BME280;41950;55.840;37.442;2023-06-04T05:35:55;100075.41;;;9.51;71.83
56074;BME280;41950;55.840;37.442;2023-06-04T05:38:24;100068.38;;;9.70;71.54
56074;BME280;41950;55.840;37.442;2023-06-04T05:40:55;100093.94;;;10.15;70.57
56074;BME280;41950;55.840;37.442;2023-06-04T05:43:22;100084.34;;;10.27;69.87
56074;BME280;41950;55.840;37.442;2023-06-04T05:45:48;100086.09;;;10.23;69.66
56074;BME280;41950;55.840;37.442;2023-06-04T05:48:14;100087.00;;;10.13;67.54
56074;BME280;41950;55.840;37.442;2023-06-04T05:50:40;100090.59;;;9.98;68.40
56074;BME280;41950;55.840;37.442;2023-06-04T05:53:06;100094.09;;;9.94;69.16
56074;BME280;41950;55.840;37.442;2023-06-04T05:55:32;100090.50;;;10.10;68.91
56074;BME280;41950;55.840;37.442;2023-06-04T05:57:57;100094.59;;;10.37;67.86
56074;BME280;41950;55.840;37.442;2023-06-04T06:00:23;100086.56;;;10.62;66.87
56074;BME280;41950;55.840;37.442;2023-06-04T06:02:50;100044.31;;;10.50;65.75
56074;BME280;41950;55.840;37.442;2023-06-04T06:05:17;100069.19;;;10.68;65.51
56074;BME280;41950;55.840;37.442;2023-06-04T06:07:44;100064.75;;;10.78;65.75
56074;BME280;41950;55.840;37.442;2023-06-04T06:10:10;100078.34;;;10.98;64.77
56074;BME280;41950;55.840;37.442;2023-06-04T06:12:36;100097.03;;;11.26;63.65
56074;BME280;41950;55.840;37.442;2023-06-04T06:15:02;100077.16;;;11.21;61.17
56074;BME280;41950;55.840;37.442;2023-06-04T06:17:31;100091.31;;;11.01;62.71
56074;BME280;41950;55.840;37.442;2023-06-04T06:19:58;100095.81;;;10.86;61.70
56074;BME280;41950;55.840;37.442;2023-06-04T06:22:24;100081.09;;;10.84;61.90
56074;BME280;41950;55.840;37.442;2023-06-04T06:24:50;100063.75;;;10.88;61.14
56074;BME280;41950;55.840;37.442;2023-06-04T06:27:17;100077.50;;;10.98;60.85
56074;BME280;41950;55.840;37.442;2023-06-04T06:29:43;100103.47;;;10.95;60.05
56074;BME280;41950;55.840;37.442;2023-06-04T06:32:10;100092.28;;;10.90;60.38
56074;BME280;41950;55.840;37.442;2023-06-04T06:34:35;100091.22;;;11.07;60.39
56074;BME280;41950;55.840;37.442;2023-06-04T06:37:03;100096.84;;;11.40;60.63
56074;BME280;41950;55.840;37.442;2023-06-04T06:39:28;100080.03;;;11.64;59.63
56074;BME280;41950;55.840;37.442;2023-06-04T06:41:54;100104.13;;;11.75;59.04
56074;BME280;41950;55.840;37.442;2023-06-04T06:44:20;100087.75;;;11.68;58.33
56074;BME280;41950;55.840;37.442;2023-06-04T06:46:46;100085.31;;;11.59;55.52
56074;BME280;41950;55.840;37.442;2023-06-04T06:49:15;100074.91;;;11.59;56.78
56074;BME280;41950;55.840;37.442;2023-06-04T06:51:41;100048.03;;;11.60;55.96
56074;BME280;41950;55.840;37.442;2023-06-04T06:54:08;100029.94;;;11.54;55.81
56074;BME280;41950;55.840;37.442;2023-06-04T06:56:35;100091.59;;;12.01;55.30
56074;BME280;41950;55.840;37.442;2023-06-04T06:59:03;100019.91;;;11.85;55.70
56074;BME280;41950;55.840;37.442;2023-06-04T07:01:30;100093.41;;;12.47;55.36
56074;BME280;41950;55.840;37.442;2023-06-04T07:03:57;100027.13;;;12.19;55.19
56074;BME280;41950;55.840;37.442;2023-06-04T07:06:23;99973.22;;;11.79;55.06
56074;BME280;41950;55.840;37.442;2023-06-04T07:08:49;100014.09;;;11.68;55.95
56074;BME280;41950;55.840;37.442;2023-06-04T07:11:15;100090.72;;;12.01;54.68
56074;BME280;41950;55.840;37.442;2023-06-04T07:13:42;100054.44;;;11.93;54.43
56074;BME280;41950;55.840;37.442;2023-06-04T07:16:07;100084.19;;;12.28;54.24
56074;BME280;41950;55.840;37.442;2023-06-04T07:18:34;100069.50;;;12.25;53.38
56074;BME280;41950;55.840;37.442;2023-06-04T07:21:00;100027.13;;;12.19;52.47
56074;BME280;41950;55.840;37.442;2023-06-04T07:23:26;100002.59;;;12.30;52.84
56074;BME280;41950;55.840;37.442;2023-06-04T07:25:52;100035.94;;;12.56;51.06
56074;BME280;41950;55.840;37.442;2023-06-04T07:28:18;100089.25;;;12.82;50.59
56074;BME280;41950;55.840;37.442;2023-06-04T07:30:47;100098.53;;;12.96;49.41
56074;BME280;41950;55.840;37.442;2023-06-04T07:33:12;100052.88;;;12.77;48.80
56074;BME280;41950;55.840;37.442;2023-06-04T07:35:38;100098.19;;;13.12;49.26
56074;BME280;41950;55.840;37.442;2023-06-04T07:38:04;100099.88;;;13.17;48.84
56074;BME280;41950;55.840;37.442;2023-06-04T07:40:30;100080.28;;;13.38;48.61
56074;BME280;41950;55.840;37.442;2023-06-04T07:42:55;100066.31;;;13.42;47.60
56074;BME280;41950;55.840;37.442;2023-06-04T07:45:21;100099.44;;;13.36;47.76
56074;BME280;41950;55.840;37.442;2023-06-04T07:47:47;100089.63;;;13.07;47.20
56074;BME280;41950;55.840;37.442;2023-06-04T07:50:13;100046.16;;;12.67;46.98
56074;BME280;41950;55.840;37.442;2023-06-04T07:52:38;100085.47;;;12.98;47.07
56074;BME280;41950;55.840;37.442;2023-06-04T07:55:04;100076.75;;;12.99;46.33
56074;BME280;41950;55.840;37.442;2023-06-04T07:57:31;100103.50;;;13.07;45.50
56074;BME280;41950;55.840;37.442;2023-06-04T07:59:57;100113.88;;;13.10;46.42
56074;BME280;41950;55.840;37.442;2023-06-04T08:02:24;100101.00;;;13.03;45.61
56074;BME280;41950;55.840;37.442;2023-06-04T08:04:50;100035.13;;;12.54;46.67
56074;BME280;41950;55.840;37.442;2023-06-04T08:07:16;100074.41;;;12.85;46.62
56074;BME280;41950;55.840;37.442;2023-06-04T08:09:43;100062.50;;;12.74;46.69
56074;BME280;41950;55.840;37.442;2023-06-04T08:12:11;100041.63;;;12.77;46.84
56074;BME280;41950;55.840;37.442;2023-06-04T08:14:36;100052.81;;;12.80;46.93
56074;BME280;41950;55.840;37.442;2023-06-04T08:17:02;100053.91;;;12.70;47.26
56074;BME280;41950;55.840;37.442;2023-06-04T08:19:34;100113.31;;;12.96;47.45
56074;BME280;41950;55.840;37.442;2023-06-04T08:22:20;100104.78;;;12.86;47.82
56074;BME280;41950;55.840;37.442;2023-06-04T08:24:59;100103.19;;;13.24;47.79
56074;BME280;41950;55.840;37.442;2023-06-04T08:27:45;100093.81;;;13.55;47.28
56074;BME280;41950;55.840;37.442;2023-06-04T08:30:30;99984.34;;;13.14;45.75
56074;BME280;41950;55.840;37.442;2023-06-04T08:33:07;99993.31;;;13.02;45.58
56074;BME280;41950;55.840;37.442;2023-06-04T08:35:39;100019.31;;;13.05;45.85
56074;BME280;41950;55.840;37.442;2023-06-04T08:38:04;100023.44;;;13.15;45.56
56074;BME280;41950;55.840;37.442;2023-06-04T08:40:30;100096.19;;;13.65;44.71
56074;BME280;41950;55.840;37.442;2023-06-04T08:42:56;100096.97;;;13.68;43.96
56074;BME280;41950;55.840;37.442;2023-06-04T08:45:25;100100.72;;;13.93;43.87
56074;BME280;41950;55.840;37.442;2023-06-04T08:47:54;100109.13;;;14.40;43.83
56074;BME280;41950;55.840;37.442;2023-06-04T08:50:22;100118.38;;;14.86;41.38
56074;BME280;41950;55.840;37.442;2023-06-04T08:52:52;100097.66;;;14.80;40.86
56074;BME280;41950;55.840;37.442;2023-06-04T08:55:22;100055.94;;;14.44;41.43
56074;BME280;41950;55.840;37.442;2023-06-04T08:57:51;100083.69;;;14.48;41.29
56074;BME280;41950;55.840;37.442;2023-06-04T09:00:17;100112.63;;;14.39;42.18
56074;BME280;41950;55.840;37.442;2023-06-04T09:02:44;100110.31;;;14.29;41.69
56074;BME280;41950;55.840;37.442;2023-06-04T09:05:19;100072.75;;;14.00;41.22
56074;BME280;41950;55.840;37.442;2023-06-04T09:07:46;100121.59;;;14.29;39.88
56074;BME280;41950;55.840;37.442;2023-06-04T09:10:18;99977.63;;;13.44;40.57
56074;BME280;41950;55.840;37.442;2023-06-04T09:12:47;100096.66;;;14.17;40.91
56074;BME280;41950;55.840;37.442;2023-06-04T09:15:13;100108.34;;;14.37;39.65
56074;BME280;41950;55.840;37.442;2023-06-04T09:17:39;100098.16;;;14.62;39.09
56074;BME280;41950;55.840;37.442;2023-06-04T09:20:05;100064.03;;;14.97;38.53
56074;BME280;41950;55.840;37.442;2023-06-04T09:22:35;100061.41;;;14.97;39.23
56074;BME280;41950;55.840;37.442;2023-06-04T09:25:06;100121.53;;;14.97;41.39
56074;BME280;41950;55.840;37.442;2023-06-04T09:27:39;100066.00;;;14.24;42.44
56074;BME280;41950;55.840;37.442;2023-06-04T09:30:07;100126.09;;;14.22;43.11
56074;BME280;41950;55.840;37.442;2023-06-04T09:32:34;100082.84;;;13.78;43.90
56074;BME280;41950;55.840;37.442;2023-06-04T09:35:10;100135.66;;;13.88;44.22
56074;BME280;41950;55.840;37.442;2023-06-04T09:37:37;100029.84;;;13.39;43.89
56074;BME280;41950;55.840;37.442;2023-06-04T09:40:03;100095.78;;;13.83;42.78
56074;BME280;41950;55.840;37.442;2023-06-04T09:42:44;100069.13;;;13.70;42.00
56074;BME280;41950;55.840;37.442;2023-06-04T09:45:11;100135.88;;;14.14;40.84
56074;BME280;41950;55.840;37.442;2023-06-04T09:47:43;100096.19;;;13.65;41.02
56074;BME280;41950;55.840;37.442;2023-06-04T09:50:12;100133.22;;;14.16;41.49
56074;BME280;41950;55.840;37.442;2023-06-04T09:52:38;100128.84;;;14.53;41.46
56074;BME280;41950;55.840;37.442;2023-06-04T09:55:25;100127.25;;;14.79;39.91
56074;BME280;41950;55.840;37.442;2023-06-04T09:57:53;100085.63;;;14.73;38.54
56074;BME280;41950;55.840;37.442;2023-06-04T10:00:20;100115.38;;;15.00;37.74
56074;BME280;41950;55.840;37.442;2023-06-04T10:02:47;100132.19;;;15.50;35.98
56074;BME280;41950;55.840;37.442;2023-06-04T10:05:14;100104.09;;;15.85;35.66
56074;BME280;41950;55.840;37.442;2023-06-04T10:07:44;100081.22;;;15.35;36.45
56074;BME280;41950;55.840;37.442;2023-06-04T10:10:21;100083.81;;;15.65;37.38
56074;BME280;41950;55.840;37.442;2023-06-04T10:12:53;100105.19;;;16.57;36.45
56074;BME280;41950;55.840;37.442;2023-06-04T10:15:20;100046.84;;;16.27;35.74
56074;BME280;41950;55.840;37.442;2023-06-04T10:17:47;100065.38;;;16.72;36.17
56074;BME280;41950;55.840;37.442;2023-06-04T10:20:14;100081.53;;;17.30;35.24
56074;BME280;41950;55.840;37.442;2023-06-04T10:22:40;100034.00;;;17.38;36.02
56074;BME280;41950;55.840;37.442;2023-06-04T10:25:07;100078.19;;;18.54;34.07
56074;BME280;41950;55.840;37.442;2023-06-04T10:27:34;100091.34;;;18.75;33.31
56074;BME280;41950;55.840;37.442;2023-06-04T10:30:05;100106.81;;;19.01;33.49
56074;BME280;41950;55.840;37.442;2023-06-04T10:32:33;100046.56;;;19.52;32.83
56074;BME280;41950;55.840;37.442;2023-06-04T10:35:04;100095.03;;;20.72;31.27
56074;BME280;41950;55.840;37.442;2023-06-04T10:37:30;100083.53;;;20.90;30.08
56074;BME280;41950;55.840;37.442;2023-06-04T10:39:57;100099.88;;;21.45;31.62
56074;BME280;41950;55.840;37.442;2023-06-04T10:42:24;100010.41;;;20.92;28.96
56074;BME280;41950;55.840;37.442;2023-06-04T10:44:52;100083.00;;;21.48;29.13
56074;BME280;41950;55.840;37.442;2023-06-04T10:47:25;100097.47;;;21.25;26.17
56074;BME280;41950;55.840;37.442;2023-06-04T10:49:53;100085.88;;;19.92;27.62
56074;BME280;41950;55.840;37.442;2023-06-04T10:52:21;100089.06;;;18.67;28.94
56074;BME280;41950;55.840;37.442;2023-06-04T10:54:47;100112.22;;;17.95;31.41
56074;BME280;41950;55.840;37.442;2023-06-04T10:57:16;100084.63;;;17.18;32.84
56074;BME280;41950;55.840;37.442;2023-06-04T10:59:54;100098.31;;;17.03;33.53
56074;BME280;41950;55.840;37.442;2023-06-04T11:02:20;100104.44;;;17.48;35.02
56074;BME280;41950;55.840;37.442;2023-06-04T11:04:46;100080.59;;;18.59;34.03
56074;BME280;41950;55.840;37.442;2023-06-04T11:07:12;100099.44;;;19.66;29.81
56074;BME280;41950;55.840;37.442;2023-06-04T11:09:47;100103.97;;;19.81;29.38
56074;BME280;41950;55.840;37.442;2023-06-04T11:12:13;100103.72;;;20.39;28.76
56074;BME280;41950;55.840;37.442;2023-06-04T11:14:39;100092.63;;;19.62;28.69
56074;BME280;41950;55.840;37.442;2023-06-04T11:17:09;100111.94;;;19.42;28.66
56074;BME280;41950;55.840;37.442;2023-06-04T11:19:36;100075.13;;;18.03;30.11
56074;BME280;41950;55.840;37.442;2023-06-04T11:22:03;100099.88;;;17.53;31.05
56074;BME280;41950;55.840;37.442;2023-06-04T11:24:30;100098.19;;;17.06;32.07
56074;BME280;41950;55.840;37.442;2023-06-04T11:26:57;100098.34;;;16.78;33.13
56074;BME280;41950;55.840;37.442;2023-06-04T11:29:25;100072.50;;;16.42;34.08
56074;BME280;41950;55.840;37.442;2023-06-04T11:31:51;100091.59;;;16.21;34.29
56074;BME280;41950;55.840;37.442;2023-06-04T11:34:27;100106.13;;;16.03;34.93
56074;BME280;41950;55.840;37.442;2023-06-04T11:36:53;100117.88;;;15.91;35.73
56074;BME280;41950;55.840;37.442;2023-06-04T11:39:20;100117.00;;;15.91;35.71
56074;BME280;41950;55.840;37.442;2023-06-04T11:41:46;100113.66;;;15.86;35.84
56074;BME280;41950;55.840;37.442;2023-06-04T11:44:12;100109.22;;;15.88;35.13
56074;BME280;41950;55.840;37.442;2023-06-04T11:46:40;100084.56;;;15.68;35.94
56074;BME280;41950;55.840;37.442;2023-06-04T11:49:07;100124.19;;;15.84;35.74
56074;BME280;41950;55.840;37.442;2023-06-04T11:51:33;100083.50;;;15.46;35.46
56074;BME280;41950;55.840;37.442;2023-06-04T11:53:58;100108.34;;;15.61;35.27
56074;BME280;41950;55.840;37.442;2023-06-04T11:56:25;100110.97;;;15.89;35.09
56074;BME280;41950;55.840;37.442;2023-06-04T11:58:57;100082.72;;;16.25;34.12
56074;BME280;41950;55.840;37.442;2023-06-04T12:01:23;100096.66;;;16.77;33.68
56074;BME280;41950;55.840;37.442;2023-06-04T12:03:53;100107.84;;;17.50;33.46
56074;BME280;41950;55.840;37.442;2023-06-04T12:06:19;100083.22;;;17.76;31.25
56074;BME280;41950;55.840;37.442;2023-06-04T12:08:57;100095.81;;;17.45;32.24
56074;BME280;41950;55.840;37.442;2023-06-04T12:11:34;100121.09;;;17.24;32.72
56074;BME280;41950;55.840;37.442;2023-06-04T12:14:03;100124.34;;;16.84;33.20
56074;BME280;41950;55.840;37.442;2023-06-04T12:16:29;100068.69;;;16.01;33.71
56074;BME280;41950;55.840;37.442;2023-06-04T12:19:14;100090.09;;;15.86;34.96
56074;BME280;41950;55.840;37.442;2023-06-04T12:21:39;100096.16;;;15.88;35.47
56074;BME280;41950;55.840;37.442;2023-06-04T12:24:11;100101.59;;;15.82;34.99
56074;BME280;41950;55.840;37.442;2023-06-04T12:26:39;100105.91;;;15.83;35.45
56074;BME280;41950;55.840;37.442;2023-06-04T12:29:09;100096.47;;;16.05;35.31
56074;BME280;41950;55.840;37.442;2023-06-04T12:31:43;100105.69;;;16.17;34.63
56074;BME280;41950;55.840;37.442;2023-06-04T12:34:10;100076.47;;;16.02;34.18
56074;BME280;41950;55.840;37.442;2023-06-04T12:36:38;100074.91;;;16.23;33.80
56074;BME280;41950;55.840;37.442;2023-06-04T12:39:04;100106.47;;;16.70;34.23
56074;BME280;41950;55.840;37.442;2023-06-04T12:41:31;100100.78;;;17.07;33.13
56074;BME280;41950;55.840;37.442;2023-06-04T12:44:00;100101.22;;;16.70;32.70
56074;BME280;41950;55.840;37.442;2023-06-04T12:46:26;100039.78;;;16.04;33.89
56074;BME280;41950;55.840;37.442;2023-06-04T12:48:53;100039.59;;;16.08;34.16
56074;BME280;41950;55.840;37.442;2023-06-04T12:51:20;100090.22;;;16.85;33.36